createdAt,value
2018-01-02T00:00:26.655Z,52.05
2018-01-02T00:02:55.020Z,52.11
2018-01-02T00:05:23.369Z,51.82
2018-01-02T00:07:51.813Z,51.78
2018-01-02T00:10:20.212Z,52.01
2018-01-02T00:12:48.560Z,51.90
2018-01-02T00:15:16.968Z,51.85
2018-01-02T00:17:45.361Z,52.39
2018-01-02T00:20:13.741Z,52.83
2018-01-02T00:22:42.164Z,52.02
2018-01-02T00:25:10.588Z,52.00
2018-01-02T00:27:39.850Z,51.89
2018-01-02T00:30:08.229Z,51.53
2018-01-02T00:32:36.633Z,51.81
2018-01-02T00:35:05.034Z,52.77
2018-01-02T00:37:33.396Z,52.20
2018-01-02T00:40:01.780Z,53.96
2018-01-02T00:42:30.119Z,54.80
2018-01-02T00:44:58.472Z,55.35
2018-01-02T00:47:26.872Z,56.26
2018-01-02T00:49:55.280Z,57.42
2018-01-02T00:52:23.660Z,58.42
2018-01-02T00:54:52.007Z,58.86
2018-01-02T00:57:21.270Z,58.07
2018-01-02T00:59:49.620Z,59.44
2018-01-02T01:02:17.981Z,60.78
2018-01-02T01:04:46.326Z,60.36
2018-01-02T01:07:15.164Z,60.15
2018-01-02T01:09:43.527Z,60.88
2018-01-02T01:12:11.907Z,60.48
2018-01-02T01:14:40.259Z,62.02
2018-01-02T01:17:08.605Z,63.31
2018-01-02T01:19:37.028Z,63.95
2018-01-02T01:22:05.433Z,63.89
2018-01-02T01:24:33.782Z,63.88
2018-01-02T01:27:02.176Z,64.45
2018-01-02T01:29:30.573Z,64.52
2018-01-02T01:31:58.954Z,64.65
2018-01-02T01:34:27.308Z,64.39
2018-01-02T01:36:55.656Z,64.90
2018-01-02T01:39:24.400Z,64.70
2018-01-02T01:41:52.753Z,64.74
2018-01-02T01:44:21.155Z,63.85
2018-01-02T01:46:49.535Z,65.17
2018-01-02T01:49:18.190Z,65.27
2018-01-02T01:51:46.597Z,65.33
2018-01-02T01:54:14.948Z,65.28
2018-01-02T01:56:43.354Z,65.34
2018-01-02T01:59:11.720Z,66.10
2018-01-02T02:01:40.075Z,66.96
2018-01-02T02:04:08.456Z,66.98
2018-01-02T02:06:36.796Z,67.51
2018-01-02T02:09:05.136Z,67.84
2018-01-02T02:11:33.493Z,67.75
2018-01-02T02:14:01.896Z,67.99
2018-01-02T02:16:30.246Z,67.76
2018-01-02T02:18:58.596Z,68.02
2018-01-02T02:21:27.340Z,68.20
2018-01-02T02:23:55.728Z,67.60
2018-01-02T02:26:24.091Z,69.25
2018-01-02T02:28:52.456Z,70.30
2018-01-02T02:31:20.813Z,70.83
2018-01-02T02:33:49.554Z,70.02
2018-01-02T02:36:17.915Z,70.69
2018-01-02T02:38:46.273Z,71.47
2018-01-02T02:41:14.621Z,70.39
2018-01-02T02:43:43.466Z,69.97
2018-01-02T02:46:11.821Z,70.64
2018-01-02T02:48:40.160Z,71.18
2018-01-02T02:51:08.520Z,72.03
2018-01-02T02:53:36.865Z,71.90
2018-01-02T02:56:05.214Z,70.50
2018-01-02T02:58:33.558Z,70.34
2018-01-02T03:01:02.025Z,69.99
2018-01-02T03:03:30.368Z,71.54
2018-01-02T03:05:58.729Z,71.67
2018-01-02T03:08:27.315Z,72.64
2018-01-02T03:10:55.731Z,72.18
2018-01-02T03:13:24.212Z,72.55
2018-01-02T03:15:52.552Z,73.10
2018-01-02T03:18:20.896Z,72.98
2018-01-02T03:20:49.277Z,72.16
2018-01-02T03:23:17.760Z,71.78
2018-01-02T03:25:46.104Z,71.99
2018-01-02T03:28:14.439Z,71.94
2018-01-02T03:30:42.805Z,71.69
2018-01-02T03:33:11.580Z,71.56
2018-01-02T03:35:40.143Z,71.62
2018-01-02T03:38:08.574Z,72.52
2018-01-02T03:40:37.408Z,72.52
2018-01-02T03:43:05.891Z,72.23
2018-01-02T03:45:34.237Z,76.00
2018-01-02T03:48:02.576Z,74.07
2018-01-02T03:50:31.135Z,73.80
2018-01-02T03:52:59.485Z,72.86
2018-01-02T03:55:28.023Z,71.96
2018-01-02T03:57:56.359Z,71.94
2018-01-02T04:00:24.702Z,71.57
2018-01-02T04:02:53.071Z,72.75
2018-01-02T04:05:21.884Z,71.79
2018-01-02T04:07:50.284Z,70.95
2018-01-02T04:10:18.644Z,70.14
2018-01-02T04:12:47.059Z,70.28
2018-01-02T04:15:15.413Z,70.73
2018-01-02T04:17:44.511Z,71.71
2018-01-02T04:20:12.895Z,70.69
2018-01-02T04:22:41.280Z,70.49
2018-01-02T04:25:09.729Z,70.05
2018-01-02T04:27:38.068Z,70.07
2018-01-02T04:30:06.423Z,70.06
2018-01-02T04:32:34.783Z,69.93
2018-01-02T04:35:03.888Z,69.37
2018-01-02T04:37:32.267Z,69.80
2018-01-02T04:40:00.617Z,69.39
2018-01-02T04:42:28.988Z,69.97
2018-01-02T04:44:57.334Z,69.81
2018-01-02T04:47:26.092Z,68.90
2018-01-02T04:49:54.476Z,68.99
2018-01-02T04:52:22.849Z,69.91
2018-01-02T04:54:51.204Z,69.82
2018-01-02T04:57:19.578Z,69.25
2018-01-02T04:59:47.932Z,69.20
2018-01-02T05:02:16.683Z,68.93
2018-01-02T05:04:45.038Z,68.33
2018-01-02T05:07:13.435Z,68.63
2018-01-02T05:09:41.791Z,68.50
2018-01-02T05:12:10.149Z,68.98
2018-01-02T05:14:38.566Z,68.85
2018-01-02T05:17:06.947Z,68.82
2018-01-02T05:19:35.327Z,68.68
2018-01-02T05:22:04.607Z,68.19
2018-01-02T05:24:32.961Z,67.84
2018-01-02T05:27:01.507Z,68.16
2018-01-02T05:29:29.863Z,67.83
2018-01-02T05:31:58.233Z,67.10
2018-01-02T05:34:26.621Z,67.50
2018-01-02T05:36:54.974Z,67.61
2018-01-02T05:39:23.987Z,67.15
2018-01-02T05:41:52.361Z,67.04
2018-01-02T05:44:20.711Z,67.35
2018-01-02T05:46:49.079Z,67.19
2018-01-02T05:49:17.843Z,67.08
2018-01-02T05:51:46.288Z,67.85
2018-01-02T05:54:14.644Z,67.56
2018-01-02T05:56:43.052Z,67.49
2018-01-02T05:59:11.420Z,67.69
2018-01-02T06:01:39.769Z,67.90
2018-01-02T06:04:08.116Z,67.70
2018-01-02T06:06:36.488Z,67.35
2018-01-02T06:09:04.854Z,67.38
2018-01-02T06:11:33.215Z,67.55
2018-01-02T06:14:01.568Z,67.35
2018-01-02T06:16:29.936Z,67.21
2018-01-02T06:18:58.722Z,67.22
2018-01-02T06:21:27.490Z,66.70
2018-01-02T06:23:55.938Z,67.25
2018-01-02T06:26:24.283Z,66.92
2018-01-02T06:28:53.349Z,67.88
2018-01-02T06:31:21.784Z,68.33
2018-01-02T06:33:50.152Z,67.83
2018-01-02T06:36:18.564Z,68.17
2018-01-02T06:38:46.918Z,68.20
2018-01-02T06:41:15.288Z,69.49
2018-01-02T06:43:43.656Z,69.96
2018-01-02T06:46:12.105Z,70.49
2018-01-02T06:48:40.954Z,70.58
2018-01-02T06:51:09.332Z,72.21
2018-01-02T06:53:37.683Z,72.05
2018-01-02T06:56:06.042Z,71.46
2018-01-02T06:58:35.104Z,71.74
2018-01-02T07:01:03.566Z,71.39
2018-01-02T07:03:31.939Z,70.51
2018-01-02T07:06:00.289Z,70.39
2018-01-02T07:08:29.496Z,69.57
2018-01-02T07:10:58.005Z,69.82
2018-01-02T07:13:26.372Z,69.33
2018-01-02T07:15:54.756Z,69.94
2018-01-02T07:18:23.104Z,70.47
2018-01-02T07:20:51.512Z,71.33
2018-01-02T07:23:19.883Z,71.18
2018-01-02T07:25:48.287Z,71.28
2018-01-02T07:28:16.627Z,70.34
2018-01-02T07:30:45.036Z,71.67
2018-01-02T07:33:13.381Z,70.91
2018-01-02T07:35:41.734Z,71.17
2018-01-02T07:38:10.471Z,70.64
2018-01-02T07:40:38.831Z,69.99
2018-01-02T07:43:07.196Z,70.91
2018-01-02T07:45:35.586Z,70.50
2018-01-02T07:48:03.934Z,71.05
2018-01-02T07:50:32.680Z,71.34
2018-01-02T07:53:01.027Z,71.60
2018-01-02T07:55:29.378Z,70.30
2018-01-02T07:57:58.224Z,70.65
2018-01-02T08:00:26.585Z,70.74
2018-01-02T08:02:54.984Z,69.85
2018-01-02T08:05:23.355Z,70.39
2018-01-02T08:07:51.701Z,70.29
2018-01-02T08:10:20.109Z,70.21
2018-01-02T08:12:48.456Z,69.99
2018-01-02T08:15:16.842Z,68.77
2018-01-02T08:17:45.189Z,69.36
2018-01-02T08:20:14.036Z,68.95
2018-01-02T08:22:42.395Z,68.28
2018-01-02T08:25:10.765Z,67.91
2018-01-02T08:27:39.117Z,69.11
2018-01-02T08:30:07.960Z,69.13
2018-01-02T08:32:36.308Z,68.70
2018-01-02T08:35:04.668Z,68.33
2018-01-02T08:37:33.416Z,68.95
2018-01-02T08:40:01.760Z,69.33
2018-01-02T08:42:30.159Z,70.64
2018-01-02T08:44:58.500Z,70.25
2018-01-02T08:47:26.927Z,69.79
2018-01-02T08:49:55.283Z,68.99
2018-01-02T08:52:23.634Z,68.45
2018-01-02T08:54:52.367Z,69.00
2018-01-02T08:57:20.727Z,69.45
2018-01-02T08:59:49.076Z,68.92
2018-01-02T09:02:17.487Z,68.92
2018-01-02T09:04:45.851Z,68.73
2018-01-02T09:07:14.206Z,68.99
2018-01-02T09:09:42.576Z,68.91
2018-01-02T09:12:16.902Z,68.71
2018-01-02T09:14:49.447Z,66.92
2018-01-02T09:17:17.787Z,66.92
2018-01-02T09:19:46.188Z,67.67
2018-01-02T09:22:14.568Z,67.70
2018-01-02T09:24:42.935Z,67.01
2018-01-02T09:27:11.295Z,66.68
2018-01-02T09:29:39.651Z,66.38
2018-01-02T09:32:08.383Z,67.17
2018-01-02T09:34:36.722Z,66.79
2018-01-02T09:37:05.083Z,67.23
2018-01-02T09:39:33.908Z,67.87
2018-01-02T09:42:02.308Z,68.15
2018-01-02T09:44:30.663Z,67.35
2018-01-02T09:46:59.060Z,66.92
2018-01-02T09:49:27.450Z,67.04
2018-01-02T09:51:55.799Z,67.00
2018-01-02T09:54:24.168Z,67.28
2018-01-02T09:56:52.584Z,67.15
2018-01-02T09:59:21.039Z,68.20
2018-01-02T10:01:49.387Z,67.24
2018-01-02T10:04:18.124Z,66.67
2018-01-02T10:06:46.468Z,65.95
2018-01-02T10:09:14.884Z,66.84
2018-01-02T10:11:43.263Z,66.46
2018-01-02T10:14:11.617Z,66.91
2018-01-02T10:16:39.973Z,66.67
2018-01-02T10:19:08.711Z,67.73
2018-01-02T10:21:37.086Z,67.06
2018-01-02T10:24:05.437Z,66.63
2018-01-02T10:26:33.850Z,66.41
2018-01-02T10:29:02.216Z,67.50
2018-01-02T10:31:30.604Z,67.09
2018-01-02T10:33:58.967Z,67.79
2018-01-02T10:36:27.363Z,66.41
2018-01-02T10:38:55.709Z,65.81
2018-01-02T10:41:24.195Z,64.76
2018-01-02T10:43:52.572Z,64.89
2018-01-02T10:46:20.923Z,65.24
2018-01-02T10:48:49.765Z,64.65
2018-01-02T10:51:18.132Z,66.41
2018-01-02T10:53:46.503Z,66.66
2018-01-02T10:56:14.915Z,66.09
2018-01-02T10:58:43.287Z,66.52
2018-01-02T11:04:05.824Z,68.08
2018-01-02T11:06:34.252Z,67.41
2018-01-02T11:09:02.616Z,66.84
2018-01-02T11:11:31.895Z,66.87
2018-01-02T11:14:00.280Z,66.58
2018-01-02T11:16:28.664Z,66.38
2018-01-02T11:18:57.040Z,67.23
2018-01-02T11:21:25.401Z,68.55
2018-01-02T11:23:53.762Z,68.29
2018-01-02T11:26:22.152Z,68.04
2018-01-02T11:28:50.518Z,67.91
2018-01-02T11:31:18.931Z,68.76
2018-01-02T11:33:47.324Z,68.45
2018-01-02T11:36:15.676Z,68.95
2018-01-02T11:38:44.034Z,67.90
2018-01-02T11:41:12.392Z,68.00
2018-01-02T11:43:41.296Z,67.81
2018-01-02T11:46:09.736Z,68.65
2018-01-02T11:48:38.195Z,68.77
2018-01-02T11:51:06.575Z,68.69
2018-01-02T11:53:35.059Z,68.25
2018-01-02T11:56:03.536Z,68.68
2018-01-02T11:58:31.893Z,68.07
2018-01-02T12:01:00.240Z,67.65
2018-01-02T12:03:29.005Z,67.83
2018-01-02T12:05:57.368Z,67.74
2018-01-02T12:08:25.743Z,68.18
2018-01-02T12:10:54.104Z,67.98
2018-01-02T12:13:22.526Z,66.82
2018-01-02T12:15:50.895Z,66.71
2018-01-02T12:18:19.268Z,66.60
2018-01-02T12:20:47.641Z,66.51
2018-01-02T12:23:15.999Z,67.06
2018-01-02T12:25:44.387Z,66.52
2018-01-02T12:28:12.747Z,66.32
2018-01-02T12:30:41.107Z,66.56
2018-01-02T12:33:09.932Z,65.76
2018-01-02T12:35:38.304Z,66.00
2018-01-02T12:38:06.671Z,65.87
2018-01-02T12:40:35.031Z,65.79
2018-01-02T12:43:03.404Z,65.38
2018-01-02T12:45:32.158Z,64.61
2018-01-02T12:48:00.507Z,64.08
2018-01-02T12:50:28.932Z,63.16
2018-01-02T12:52:57.288Z,63.89
2018-01-02T12:55:25.763Z,63.15
2018-01-02T12:57:54.572Z,63.82
2018-01-02T13:00:22.931Z,64.09
2018-01-02T13:02:51.309Z,64.18
2018-01-02T13:05:19.683Z,63.83
2018-01-02T13:07:48.185Z,63.53
2018-01-02T13:10:16.583Z,64.06
2018-01-02T13:12:44.923Z,64.01
2018-01-02T13:15:13.299Z,64.15
2018-01-02T13:17:41.666Z,63.94
2018-01-02T13:20:10.078Z,64.74
2018-01-02T13:22:38.441Z,65.28
2018-01-02T13:25:06.950Z,64.57
2018-01-02T13:27:35.814Z,64.54
2018-01-02T13:30:04.194Z,64.22
2018-01-02T13:32:32.561Z,63.62
2018-01-02T13:35:00.948Z,63.84
2018-01-02T13:37:29.304Z,64.06
2018-01-02T13:39:57.647Z,63.24
2018-01-02T13:42:26.407Z,63.22
2018-01-02T13:44:54.872Z,62.92
2018-01-02T13:47:23.253Z,63.52
2018-01-02T13:49:51.607Z,63.25
2018-01-02T13:52:19.961Z,63.60
2018-01-02T13:54:48.705Z,63.37
2018-01-02T13:57:17.176Z,62.32
2018-01-02T13:59:45.554Z,61.87
2018-01-02T14:02:13.911Z,62.48
2018-01-02T14:04:42.307Z,62.65
2018-01-02T14:07:10.667Z,62.47
2018-01-02T14:09:39.020Z,62.73
2018-01-02T14:12:07.847Z,62.50
2018-01-02T14:14:36.191Z,63.60
2018-01-02T14:17:04.552Z,62.44
2018-01-02T14:19:32.938Z,61.71
2018-01-02T14:22:01.771Z,61.82
2018-01-02T14:24:30.168Z,61.60
2018-01-02T14:26:58.627Z,61.87
2018-01-02T14:29:26.981Z,62.54
2018-01-02T14:31:55.332Z,63.40
2018-01-02T14:34:24.185Z,63.25
2018-01-02T14:36:52.533Z,63.59
2018-01-02T14:39:20.887Z,64.62
2018-01-02T14:41:49.627Z,64.55
2018-01-02T14:44:18.008Z,64.60
2018-01-02T14:46:46.364Z,64.01
2018-01-02T14:49:14.772Z,65.17
2018-01-02T14:51:43.119Z,65.35
2018-01-02T14:54:11.511Z,64.78
2018-01-02T14:56:39.873Z,64.07
2018-01-02T14:59:08.240Z,65.30
2018-01-02T15:01:36.665Z,64.13
2018-01-02T15:04:05.011Z,64.42
2018-01-02T15:06:33.408Z,64.45
2018-01-02T15:09:01.796Z,63.68
2018-01-02T15:11:30.154Z,64.32
2018-01-02T15:13:58.543Z,65.24
2018-01-02T15:16:26.901Z,64.22
2018-01-02T15:18:55.316Z,64.33
2018-01-02T15:21:23.856Z,65.62
2018-01-02T15:23:52.199Z,65.13
2018-01-02T15:26:20.569Z,64.79
2018-01-02T15:28:49.035Z,64.46
2018-01-02T15:31:17.401Z,64.43
2018-01-02T15:33:45.753Z,64.16
2018-01-02T15:36:14.204Z,65.32
2018-01-02T15:38:43.065Z,65.85
2018-01-02T15:41:11.444Z,65.13
2018-01-02T15:43:39.952Z,64.23
2018-01-02T15:46:08.709Z,64.33
2018-01-02T15:48:37.051Z,64.27
2018-01-02T15:51:05.464Z,64.84
2018-01-02T15:53:33.808Z,63.92
2018-01-02T15:56:02.279Z,63.46
2018-01-02T15:58:30.676Z,63.31
2018-01-02T16:00:59.026Z,62.75
2018-01-02T16:03:27.775Z,63.20
2018-01-02T16:05:56.150Z,63.36
2018-01-02T16:08:24.491Z,64.50
2018-01-02T16:10:52.891Z,64.60
2018-01-02T16:13:21.248Z,64.39
2018-01-02T16:15:49.620Z,64.42
2018-01-02T16:18:18.012Z,64.16
2018-01-02T16:20:46.359Z,63.95
2018-01-02T16:23:14.801Z,63.96
2018-01-02T16:25:43.155Z,64.21
2018-01-02T16:28:11.511Z,64.36
2018-01-02T16:30:39.916Z,64.33
2018-01-02T16:33:08.322Z,63.61
2018-01-02T16:35:36.704Z,63.19
2018-01-02T16:38:05.073Z,63.14
2018-01-02T16:40:33.484Z,62.97
2018-01-02T16:43:01.847Z,63.65
2018-01-02T16:45:30.227Z,63.96
2018-01-02T16:47:58.565Z,64.18
2018-01-02T16:50:27.067Z,64.36
2018-01-02T16:52:55.428Z,64.27
2018-01-02T16:55:23.795Z,64.20
2018-01-02T16:57:52.203Z,64.12
2018-01-02T17:00:20.523Z,63.91
2018-01-02T17:02:49.910Z,64.01
2018-01-02T17:05:18.315Z,63.65
2018-01-02T17:07:47.151Z,63.33
2018-01-02T17:10:15.513Z,63.49
2018-01-02T17:12:43.909Z,63.60
2018-01-02T17:15:12.255Z,62.77
2018-01-02T17:17:40.672Z,62.60
2018-01-02T17:20:09.046Z,63.83
2018-01-02T17:22:37.394Z,63.57
2018-01-02T17:25:05.810Z,64.39
2018-01-02T17:27:34.156Z,63.39
2018-01-02T17:30:02.536Z,62.87
2018-01-02T17:32:30.896Z,62.25
2018-01-02T17:34:59.307Z,62.84
2018-01-02T17:37:27.672Z,63.16
2018-01-02T17:39:56.025Z,63.18
2018-01-02T17:42:24.917Z,62.83
2018-01-02T17:44:53.667Z,63.09
2018-01-02T17:47:22.015Z,63.25
2018-01-02T17:49:50.362Z,62.64
2018-01-02T17:52:19.117Z,62.86
2018-01-02T17:54:47.464Z,62.52
2018-01-02T17:57:15.821Z,62.13
2018-01-02T17:59:44.169Z,62.62
2018-01-02T18:02:12.970Z,62.96
2018-01-02T18:04:41.840Z,62.80
2018-01-02T18:07:10.196Z,62.70
2018-01-02T18:09:38.564Z,63.01
2018-01-02T18:12:06.914Z,62.81
2018-01-02T18:14:35.282Z,62.18
2018-01-02T18:17:03.649Z,62.02
2018-01-02T18:19:33.205Z,62.96
2018-01-02T18:22:01.583Z,62.85
2018-01-02T18:24:29.962Z,63.27
2018-01-02T18:26:59.175Z,62.13
2018-01-02T18:29:27.551Z,62.08
2018-01-02T18:31:55.916Z,62.09
2018-01-02T18:34:24.396Z,62.37
2018-01-02T18:36:52.839Z,62.11
2018-01-02T18:39:21.164Z,61.94
2018-01-02T18:41:49.519Z,61.92
2018-01-02T18:44:17.875Z,61.82
2018-01-02T18:46:46.218Z,61.79
2018-01-02T18:49:14.753Z,63.40
2018-01-02T18:51:43.156Z,62.53
2018-01-02T18:54:11.523Z,62.06
2018-01-02T18:56:39.904Z,62.13
2018-01-02T18:59:08.260Z,62.17
2018-01-02T19:01:36.680Z,61.75
2018-01-02T19:04:05.044Z,62.86
2018-01-02T19:06:33.419Z,63.00
2018-01-02T19:09:01.801Z,62.73
2018-01-02T19:11:30.185Z,62.70
2018-01-02T19:13:58.546Z,62.68
2018-01-02T19:16:26.882Z,62.31
2018-01-02T19:18:55.772Z,62.17
2018-01-02T19:21:24.151Z,61.70
2018-01-02T19:23:52.992Z,62.17
2018-01-02T19:26:21.390Z,61.80
2018-01-02T19:28:49.870Z,61.69
2018-01-02T19:31:18.235Z,61.44
2018-01-02T19:33:46.632Z,61.37
2018-01-02T19:36:14.984Z,61.83
2018-01-02T19:38:43.340Z,62.18
2018-01-02T19:41:11.683Z,61.23
2018-01-02T19:43:40.040Z,61.56
2018-01-02T19:46:08.409Z,60.96
2018-01-02T19:48:36.771Z,60.96
2018-01-02T19:51:05.172Z,60.43
2018-01-02T19:53:33.537Z,61.02
2018-01-02T19:56:01.963Z,60.74
2018-01-02T19:58:30.726Z,60.58
2018-01-02T20:00:59.183Z,60.52
2018-01-02T20:03:27.536Z,60.20
2018-01-02T20:05:55.956Z,60.25
2018-01-02T20:08:24.308Z,59.61
2018-01-02T20:10:52.709Z,59.52
2018-01-02T20:13:21.107Z,59.23
2018-01-02T20:15:49.759Z,58.77
2018-01-02T20:18:23.751Z,58.78
2018-01-02T20:20:52.156Z,59.07
2018-01-02T20:23:20.535Z,59.41
2018-01-02T20:25:48.967Z,59.78
2018-01-02T20:28:17.703Z,60.53
2018-01-02T20:30:46.076Z,60.44
2018-01-02T20:33:14.460Z,60.47
2018-01-02T20:35:42.871Z,60.14
2018-01-02T20:38:11.291Z,60.39
2018-01-02T20:40:39.708Z,59.61
2018-01-02T20:43:08.123Z,59.90
2018-01-02T20:45:36.968Z,60.16
2018-01-02T20:48:05.336Z,61.04
2018-01-02T20:50:34.020Z,61.19
2018-01-02T20:53:02.416Z,61.16
2018-01-02T20:55:30.785Z,61.83
2018-01-02T20:57:59.171Z,61.75
2018-01-02T21:00:27.547Z,62.80
2018-01-02T21:02:55.905Z,62.23
2018-01-02T21:05:24.334Z,61.53
2018-01-02T21:07:52.746Z,61.58
2018-01-02T21:10:21.115Z,61.81
2018-01-02T21:12:49.463Z,61.82
2018-01-02T21:15:17.812Z,62.23
2018-01-02T21:17:46.166Z,62.46
2018-01-02T21:20:14.623Z,63.09
2018-01-02T21:22:43.384Z,63.16
2018-01-02T21:25:11.735Z,62.85
2018-01-02T21:27:40.141Z,63.85
2018-01-02T21:30:08.500Z,64.70
2018-01-02T21:32:36.892Z,65.03
2018-01-02T21:35:05.270Z,64.80
2018-01-02T21:37:33.648Z,65.29
2018-01-02T21:40:02.036Z,64.50
2018-01-02T21:42:30.418Z,64.68
2018-01-02T21:44:58.776Z,64.93
2018-01-02T21:47:27.156Z,64.99
2018-01-02T21:49:55.612Z,65.68
2018-01-02T21:52:24.027Z,64.67
2018-01-02T21:54:52.535Z,64.44
2018-01-02T21:57:20.987Z,64.22
2018-01-02T21:59:49.695Z,64.99
2018-01-02T22:02:18.038Z,64.61
2018-01-02T22:04:46.488Z,64.55
2018-01-02T22:07:15.597Z,65.32
2018-01-02T22:09:43.955Z,64.96
2018-01-02T22:12:12.375Z,64.85
2018-01-02T22:14:40.732Z,64.14
2018-01-02T22:17:09.131Z,63.76
2018-01-02T22:19:37.516Z,64.79
2018-01-02T22:22:05.909Z,64.72
2018-01-02T22:24:34.263Z,64.33
2018-01-02T22:27:02.624Z,64.96
2018-01-02T22:29:31.139Z,64.86
2018-01-02T22:31:59.513Z,64.26
2018-01-02T22:34:27.864Z,64.77
2018-01-02T22:36:56.235Z,64.30
2018-01-02T22:39:24.643Z,64.68
2018-01-02T22:41:53.139Z,64.73
2018-01-02T22:44:21.485Z,64.67
2018-01-02T22:46:49.885Z,65.26
2018-01-02T22:49:18.303Z,65.89
2018-01-02T22:51:47.111Z,65.38
2018-01-02T22:54:15.846Z,65.83
2018-01-02T22:56:44.210Z,65.65
2018-01-02T22:59:12.647Z,65.92
2018-01-02T23:01:41.078Z,65.66
2018-01-02T23:04:09.428Z,65.73
2018-01-02T23:06:37.774Z,65.69
2018-01-02T23:09:06.534Z,65.45
2018-01-02T23:11:34.923Z,65.58
2018-01-02T23:14:03.302Z,65.17
2018-01-02T23:16:31.669Z,65.42
2018-01-02T23:19:00.118Z,66.15
2018-01-02T23:21:28.525Z,66.65
2018-01-02T23:23:56.875Z,67.65
2018-01-02T23:26:25.244Z,67.35
2018-01-02T23:28:53.596Z,66.99
2018-01-02T23:31:22.445Z,66.17
2018-01-02T23:33:50.791Z,65.75
2018-01-02T23:36:19.147Z,66.83
2018-01-02T23:38:47.518Z,66.22
2018-01-02T23:41:15.959Z,66.05
2018-01-02T23:43:44.327Z,66.81
2018-01-02T23:46:12.679Z,66.23
2018-01-02T23:48:41.023Z,66.85
2018-01-02T23:51:09.468Z,67.12
2018-01-02T23:53:37.871Z,67.16
2018-01-02T23:56:06.335Z,67.15
2018-01-02T23:58:34.684Z,67.03
